Bombay Beach, California
Current Conditions -  °F | °C
As of 7:53 PM on Wednesday 22 Oct 2014 (Local Time) from KIPL Reporting Station
Clear Clear  
Wind Chill: 76°   Ceiling: Unl
Heat Index: 76°   Visibility: 10mi
Dew Point: 49°   Wind: 3mph
Humidity: 38%   Direction: 300°WNW
Pressure: 29.86"   Gusts: NA
Location:  33.3324°N, 115.621°W
Report Text: KIPL 230253Z AUTO 30003KT 10SM CLR 24/09 A2986 RMK AO2 SLP111 T02440094 53011
Loading
Personal Weather Stations






























Interactive Weather Map
Tropical Storm Tracking
New forecast layout! Learn more

10-Day Weather Forecast

Advertisements
Track Severe Weather on mobile